Time;durP1;ratioP1;P1;durP2;ratioP2;P2;SDS_P1;SDS_P2;PMS_P1;PMS_P2;Temp;Humidity;BMP_temperature;BMP_pressure;BME280_temperature;BME280_humidity;BME280_pressure;Samples;Min_cycle;Max_cycle;Signal;HPM_P1;HPM_P2
2022/05/15 00:03:27;;;;;;;12.90;7.60;;;;;;;;;;8270618;28;20038;-86
2022/05/15 00:07:30;;;;;;;15.50;7.15;;;;;;;;;;8270646;28;20479;-86
2022/05/15 00:11:33;;;;;;;17.25;8.30;;;;;;;;;;8270241;28;20109;-86
2022/05/15 00:15:36;;;;;;;18.35;8.90;;;;;;;;;;8270374;28;20050;-87
2022/05/15 00:19:40;;;;;;;19.30;8.57;;;;;;;;;;8270303;28;20053;-86
2022/05/15 00:23:43;;;;;;;12.25;7.45;;;;;;;;;;8269867;28;20065;-86
2022/05/15 00:27:47;;;;;;;14.45;7.82;;;;;;;;;;8269750;28;20050;-86
2022/05/15 00:31:50;;;;;;;14.57;8.60;;;;;;;;;;8296408;28;20049;-86
2022/05/15 00:35:54;;;;;;;38.83;18.52;;;;;;;;;;8300404;28;20053;-86
2022/05/15 00:39:57;;;;;;;19.23;10.45;;;;;;;;;;8299709;28;20046;-86
2022/05/15 00:44:00;;;;;;;38.38;17.23;;;;;;;;;;8299850;28;20058;-86
2022/05/15 00:48:03;;;;;;;25.80;12.00;;;;;;;;;;8297231;28;20054;-87
2022/05/15 00:52:12;;;;;;;13.57;7.90;;;;;;;;;;8279881;28;20548;-86
2022/05/15 00:56:16;;;;;;;14.50;8.13;;;;;;;;;;8282169;28;20041;-86
2022/05/15 01:00:22;;;;;;;11.18;6.50;;;;;;;;;;8292801;28;20470;-86
2022/05/15 01:04:25;;;;;;;13.82;8.13;;;;;;;;;;8292267;28;20042;-86
2022/05/15 01:08:30;;;;;;;12.57;7.18;;;;;;;;;;8274785;28;20054;-85
2022/05/15 01:12:35;;;;;;;13.52;7.80;;;;;;;;;;8280142;28;20064;-87
2022/05/15 01:16:38;;;;;;;12.50;6.50;;;;;;;;;;8297336;28;20052;-87
2022/05/15 01:20:42;;;;;;;19.42;10.52;;;;;;;;;;8293201;28;20057;-87
2022/05/15 01:24:46;;;;;;;11.93;7.43;;;;;;;;;;8269521;28;20046;-86
2022/05/15 01:28:49;;;;;;;11.02;6.97;;;;;;;;;;8294369;28;20130;-87
2022/05/15 01:32:52;;;;;;;11.82;6.32;;;;;;;;;;8294735;28;20057;-86
2022/05/15 01:36:55;;;;;;;10.57;6.82;;;;;;;;;;8285182;28;20153;-86
2022/05/15 01:40:59;;;;;;;12.98;5.75;;;;;;;;;;8283560;28;20049;-87
2022/05/15 01:45:01;;;;;;;13.18;7.22;;;;;;;;;;8278291;28;20614;-86
2022/05/15 01:49:06;;;;;;;10.18;6.22;;;;;;;;;;8292847;28;20069;-86
2022/05/15 01:53:10;;;;;;;12.55;6.88;;;;;;;;;;8282728;28;20189;-85
2022/05/15 01:57:14;;;;;;;13.02;6.85;;;;;;;;;;8266866;28;20462;-86
2022/05/15 02:01:17;;;;;;;10.52;6.20;;;;;;;;;;8267255;28;20399;-85
2022/05/15 02:05:21;;;;;;;11.57;7.07;;;;;;;;;;8267128;28;20046;-85
2022/05/15 02:09:23;;;;;;;12.10;6.45;;;;;;;;;;8266711;28;20050;-85
2022/05/15 02:13:28;;;;;;;12.85;6.30;;;;;;;;;;8266638;28;20309;-86
2022/05/15 02:17:31;;;;;;;11.77;7.53;;;;;;;;;;8266472;28;20050;-86
2022/05/15 02:21:34;;;;;;;14.80;7.45;;;;;;;;;;8266546;28;20121;-86
2022/05/15 02:25:38;;;;;;;13.88;7.28;;;;;;;;;;8266660;28;20042;-85
2022/05/15 02:29:42;;;;;;;11.80;7.00;;;;;;;;;;8265525;28;20057;-85
2022/05/15 02:33:45;;;;;;;15.35;7.93;;;;;;;;;;8284552;28;20490;-85
2022/05/15 02:37:48;;;;;;;14.57;7.85;;;;;;;;;;8297336;28;20046;-86
2022/05/15 02:41:51;;;;;;;11.75;6.55;;;;;;;;;;8297706;28;20057;-86
2022/05/15 02:45:55;;;;;;;12.00;6.97;;;;;;;;;;8267179;28;20467;-86
2022/05/15 02:54:18;;;;;;;11.18;6.45;;;;;;;;;;8291376;28;20477;-85
2022/05/15 02:58:20;;;;;;;8.77;5.45;;;;;;;;;;8296799;28;20515;-86
2022/05/15 03:02:24;;;;;;;9.40;6.03;;;;;;;;;;8298287;28;20046;-86
2022/05/15 03:06:27;;;;;;;12.90;7.20;;;;;;;;;;8303317;28;20421;-86
2022/05/15 03:10:29;;;;;;;16.80;7.88;;;;;;;;;;8303138;28;20041;-86
2022/05/15 03:14:32;;;;;;;15.15;8.15;;;;;;;;;;8303420;28;20049;-85
2022/05/15 03:18:38;;;;;;;10.40;6.45;;;;;;;;;;8303012;28;20070;-86
2022/05/15 03:22:40;;;;;;;10.63;6.53;;;;;;;;;;8302719;28;20045;-85
2022/05/15 03:26:45;;;;;;;12.13;5.70;;;;;;;;;;8303102;28;20058;-86
2022/05/15 03:30:48;;;;;;;12.90;6.13;;;;;;;;;;8303010;28;20490;-86
2022/05/15 03:34:51;;;;;;;11.90;7.60;;;;;;;;;;8302256;28;20652;-86
2022/05/15 03:38:54;;;;;;;22.90;11.88;;;;;;;;;;8302078;28;20239;-85
2022/05/15 03:42:57;;;;;;;17.45;9.25;;;;;;;;;;8302178;28;20489;-86
2022/05/15 03:46:59;;;;;;;74.72;34.10;;;;;;;;;;8294876;28;20057;-85
2022/05/15 03:51:04;;;;;;;17.88;12.05;;;;;;;;;;8270900;28;20495;-85
2022/05/15 03:55:07;;;;;;;12.48;7.43;;;;;;;;;;8270448;28;20105;-85
2022/05/15 03:59:10;;;;;;;11.93;6.20;;;;;;;;;;8270933;28;20055;-86
2022/05/15 04:03:13;;;;;;;11.85;6.68;;;;;;;;;;8271168;28;20054;-86
2022/05/15 04:07:17;;;;;;;16.88;7.70;;;;;;;;;;8270978;28;20494;-86
2022/05/15 04:11:19;;;;;;;20.15;12.95;;;;;;;;;;8270659;28;20057;-86
2022/05/15 04:15:22;;;;;;;15.40;11.25;;;;;;;;;;8269778;28;20486;-86
2022/05/15 04:19:25;;;;;;;16.48;13.57;;;;;;;;;;8270035;28;20061;-86
2022/05/15 04:23:29;;;;;;;13.45;8.07;;;;;;;;;;8269828;28;20053;-87
2022/05/15 04:27:32;;;;;;;14.73;8.75;;;;;;;;;;8269914;28;20061;-86
2022/05/15 04:31:35;;;;;;;12.07;7.25;;;;;;;;;;8270357;28;20058;-86
2022/05/15 04:35:37;;;;;;;12.52;7.10;;;;;;;;;;8269505;28;20137;-86
2022/05/15 04:39:41;;;;;;;13.40;8.15;;;;;;;;;;8269987;28;20117;-85
2022/05/15 04:43:44;;;;;;;16.83;8.15;;;;;;;;;;8269077;28;20585;-86
2022/05/15 04:47:47;;;;;;;15.02;9.00;;;;;;;;;;8269447;28;20050;-86
2022/05/15 04:51:50;;;;;;;16.52;9.95;;;;;;;;;;8269681;28;20565;-86
2022/05/15 04:55:54;;;;;;;21.85;11.15;;;;;;;;;;8269176;28;20046;-87
2022/05/15 04:59:56;;;;;;;23.95;13.18;;;;;;;;;;8294565;28;20474;-86
2022/05/15 05:03:59;;;;;;;27.13;13.40;;;;;;;;;;8299989;28;20065;-86
2022/05/15 05:08:02;;;;;;;17.05;9.10;;;;;;;;;;8299485;28;20042;-86
2022/05/15 05:12:07;;;;;;;17.70;8.35;;;;;;;;;;8299318;28;20046;-86
2022/05/15 05:16:10;;;;;;;15.32;7.93;;;;;;;;;;8276597;28;20067;-85
2022/05/15 05:20:15;;;;;;;23.85;8.65;;;;;;;;;;8270084;28;20042;-86
2022/05/15 05:24:17;;;;;;;19.60;6.85;;;;;;;;;;8272408;28;20064;-88
2022/05/15 05:28:21;;;;;;;21.58;7.22;;;;;;;;;;8282894;28;20054;-86
2022/05/15 05:32:25;;;;;;;14.80;6.25;;;;;;;;;;8287736;28;20053;-88
2022/05/15 05:36:28;;;;;;;12.40;4.90;;;;;;;;;;8268052;28;20173;-86
2022/05/15 05:40:30;;;;;;;15.95;5.80;;;;;;;;;;8267714;28;20050;-86
2022/05/15 05:44:34;;;;;;;12.35;4.88;;;;;;;;;;8267203;28;20073;-87
2022/05/15 05:48:37;;;;;;;13.52;5.03;;;;;;;;;;8268063;28;20050;-87
2022/05/15 05:52:41;;;;;;;14.05;4.57;;;;;;;;;;8267320;28;20466;-86
2022/05/15 05:56:44;;;;;;;11.80;4.47;;;;;;;;;;8286866;28;20069;-85
2022/05/15 06:00:48;;;;;;;8.70;3.33;;;;;;;;;;8298184;28;20133;-85
2022/05/15 06:04:51;;;;;;;10.43;3.45;;;;;;;;;;8253751;28;20054;-87
2022/05/15 06:08:53;;;;;;;10.80;3.10;;;;;;;;;;8281135;28;20053;-86
2022/05/15 06:12:56;;;;;;;10.13;2.67;;;;;;;;;;8266665;28;20054;-87
2022/05/15 06:17:00;;;;;;;10.32;2.78;;;;;;;;;;8266020;28;20042;-86
2022/05/15 06:21:03;;;;;;;8.43;2.75;;;;;;;;;;8271420;28;20479;-86
2022/05/15 06:25:07;;;;;;;6.38;2.20;;;;;;;;;;8272469;28;20482;-87
2022/05/15 06:29:09;;;;;;;7.30;2.28;;;;;;;;;;8266426;28;20054;-87
2022/05/15 06:33:13;;;;;;;15.48;3.10;;;;;;;;;;8269969;28;20544;-87
2022/05/15 06:37:16;;;;;;;7.90;2.83;;;;;;;;;;8269009;28;20421;-87
2022/05/15 06:41:19;;;;;;;8.73;2.47;;;;;;;;;;8279472;28;20053;-87
2022/05/15 06:45:24;;;;;;;8.15;2.53;;;;;;;;;;8269203;28;20050;-88
2022/05/15 06:49:29;;;;;;;9.43;2.97;;;;;;;;;;8256464;28;20078;-89
2022/05/15 06:53:33;;;;;;;8.38;2.70;;;;;;;;;;8241440;28;20053;-86
2022/05/15 06:57:47;;;;;;;7.35;2.78;;;;;;;;;;8246887;28;20061;-88
2022/05/15 07:01:57;;;;;;;10.90;3.08;;;;;;;;;;8273594;28;20042;-88
2022/05/15 07:06:16;;;;;;;8.15;2.92;;;;;;;;;;8267252;28;20469;-88
2022/05/15 07:10:25;;;;;;;10.15;2.83;;;;;;;;;;8266814;28;20046;-88
2022/05/15 07:14:31;;;;;;;5.63;1.83;;;;;;;;;;8288503;28;20034;-87
2022/05/15 07:18:38;;;;;;;5.28;1.90;;;;;;;;;;8289622;28;20435;-86
2022/05/15 07:22:49;;;;;;;8.18;2.95;;;;;;;;;;8292150;28;20042;-87
2022/05/15 07:27:02;;;;;;;10.30;2.55;;;;;;;;;;8274912;28;20081;-87
2022/05/15 07:31:11;;;;;;;6.35;2.17;;;;;;;;;;8285849;28;20397;-87
2022/05/15 07:35:31;;;;;;;6.43;1.98;;;;;;;;;;8280354;28;20138;-88
2022/05/15 07:39:39;;;;;;;8.15;2.17;;;;;;;;;;8272395;28;20101;-85
2022/05/15 07:43:51;;;;;;;6.95;1.90;;;;;;;;;;8261445;28;20054;-85
2022/05/15 07:48:12;;;;;;;5.78;1.88;;;;;;;;;;8261135;28;20516;-85
2022/05/15 07:52:21;;;;;;;5.75;2.03;;;;;;;;;;8268598;28;20050;-87
2022/05/15 07:56:43;;;;;;;6.85;2.22;;;;;;;;;;8267253;28;20046;-87
2022/05/15 08:01:25;;;;;;;6.65;1.65;;;;;;;;;;8268262;28;20608;-85
2022/05/15 08:10:04;;;;;;;6.43;1.92;;;;;;;;;;8265161;28;20479;-84
2022/05/15 08:14:36;;;;;;;7.63;1.95;;;;;;;;;;8265429;28;20089;-86
2022/05/15 08:27:50;;;;;;;5.85;1.77;;;;;;;;;;8267972;28;20050;-87
2022/05/15 08:32:12;;;;;;;6.82;2.00;;;;;;;;;;8268114;28;20053;-83
2022/05/15 08:36:29;;;;;;;6.50;2.13;;;;;;;;;;8270256;28;20521;-87
2022/05/15 08:40:49;;;;;;;5.40;1.50;;;;;;;;;;8264367;28;20050;-86
2022/05/15 08:45:11;;;;;;;8.60;1.95;;;;;;;;;;8268533;28;20529;-87
2022/05/15 08:49:26;;;;;;;4.50;1.88;;;;;;;;;;8265906;28;20622;-86
2022/05/15 08:53:46;;;;;;;5.75;1.45;;;;;;;;;;8273891;28;20052;-85
2022/05/15 08:58:14;;;;;;;5.03;1.73;;;;;;;;;;8277151;28;20422;-87
2022/05/15 09:02:33;;;;;;;6.47;1.30;;;;;;;;;;8264321;28;20051;-85
2022/05/15 09:07:08;;;;;;;3.75;1.60;;;;;;;;;;8267827;28;20578;-85
2022/05/15 09:11:49;;;;;;;3.90;1.77;;;;;;;;;;8263823;28;20057;-85
2022/05/15 09:16:24;;;;;;;6.68;1.60;;;;;;;;;;8263664;28;20471;-85
2022/05/15 09:25:34;;;;;;;6.95;1.55;;;;;;;;;;8293118;28;20128;-85
2022/05/15 09:29:38;;;;;;;4.47;1.48;;;;;;;;;;8263274;28;20101;-86
2022/05/15 09:33:50;;;;;;;4.40;1.80;;;;;;;;;;8283724;28;20046;-86
2022/05/15 09:46:58;;;;;;;4.40;1.33;;;;;;;;;;8268229;28;20498;-86
2022/05/15 09:51:04;;;;;;;4.40;1.38;;;;;;;;;;8292552;28;20453;-85
2022/05/15 09:55:12;;;;;;;5.32;1.58;;;;;;;;;;8294038;28;20092;-85
2022/05/15 09:59:18;;;;;;;6.60;1.50;;;;;;;;;;8266441;28;20093;-85
2022/05/15 10:03:24;;;;;;;5.63;1.77;;;;;;;;;;8266710;28;20358;-85
2022/05/15 10:07:35;;;;;;;8.90;1.75;;;;;;;;;;8249439;28;20057;-85
2022/05/15 10:11:41;;;;;;;3.92;1.50;;;;;;;;;;8266138;28;20088;-85
2022/05/15 10:15:50;;;;;;;3.00;1.40;;;;;;;;;;8266761;28;20136;-85
2022/05/15 10:20:00;;;;;;;5.50;1.55;;;;;;;;;;8266745;28;20046;-83
2022/05/15 10:24:07;;;;;;;3.60;1.10;;;;;;;;;;8266682;28;20105;-85
2022/05/15 10:28:30;;;;;;;7.53;1.95;;;;;;;;;;8266501;28;20502;-83
2022/05/15 10:32:40;;;;;;;2.90;1.50;;;;;;;;;;8266862;28;20129;-86
2022/05/15 10:36:56;;;;;;;5.38;1.48;;;;;;;;;;8266028;28;20054;-86
2022/05/15 10:41:13;;;;;;;4.68;1.73;;;;;;;;;;8265700;28;20054;-85
2022/05/15 10:45:22;;;;;;;5.28;1.50;;;;;;;;;;8265749;28;20642;-85
2022/05/15 10:49:51;;;;;;;4.20;1.52;;;;;;;;;;8265471;28;20599;-85
2022/05/15 10:58:46;;;;;;;6.28;1.67;;;;;;;;;;8297050;28;20159;-85
2022/05/15 11:03:11;;;;;;;3.80;1.40;;;;;;;;;;8296931;28;20053;-86
2022/05/15 11:07:22;;;;;;;3.55;1.45;;;;;;;;;;8296797;28;20042;-86
2022/05/15 11:11:31;;;;;;;2.55;1.27;;;;;;;;;;8297496;28;20046;-86
2022/05/15 11:15:56;;;;;;;3.47;1.20;;;;;;;;;;8296683;28;20046;-85
2022/05/15 11:20:05;;;;;;;4.65;1.30;;;;;;;;;;8273580;28;20050;-85
2022/05/15 11:24:16;;;;;;;3.53;1.40;;;;;;;;;;8289241;28;20103;-87
2022/05/15 11:28:26;;;;;;;3.53;1.40;;;;;;;;;;8269383;28;20552;-86
2022/05/15 11:32:34;;;;;;;4.60;1.60;;;;;;;;;;8269165;28;20497;-85
2022/05/15 11:36:40;;;;;;;2.50;1.35;;;;;;;;;;8274736;28;20054;-86
2022/05/15 11:40:47;;;;;;;1.85;1.13;;;;;;;;;;8290903;28;20046;-86
2022/05/15 11:44:51;;;;;;;4.25;1.20;;;;;;;;;;8266222;28;20054;-85
2022/05/15 11:48:59;;;;;;;1.40;1.00;;;;;;;;;;8271869;28;20113;-87
2022/05/15 11:53:08;;;;;;;3.80;1.40;;;;;;;;;;8275073;28;20046;-86
2022/05/15 11:57:31;;;;;;;5.05;1.48;;;;;;;;;;8258417;28;20554;-88
2022/05/15 12:01:50;;;;;;;5.97;1.98;;;;;;;;;;8274147;28;20058;-88
2022/05/15 12:06:05;;;;;;;4.32;1.58;;;;;;;;;;8281693;28;20328;-86
2022/05/15 12:10:09;;;;;;;2.75;1.15;;;;;;;;;;8267971;28;20525;-85
2022/05/15 12:14:35;;;;;;;3.08;1.25;;;;;;;;;;8276332;28;20516;-86
2022/05/15 12:18:39;;;;;;;3.90;1.23;;;;;;;;;;8279619;28;20096;-86
2022/05/15 12:22:46;;;;;;;3.83;1.20;;;;;;;;;;8266536;28;20069;-86
2022/05/15 12:27:00;;;;;;;3.97;1.40;;;;;;;;;;8264336;28;20050;-87
2022/05/15 12:31:08;;;;;;;2.42;1.38;;;;;;;;;;8268267;28;20061;-84
2022/05/15 12:35:15;;;;;;;4.45;1.30;;;;;;;;;;8265253;28;20093;-85
2022/05/15 12:39:24;;;;;;;2.10;1.30;;;;;;;;;;8267778;28;20069;-86
2022/05/15 12:43:31;;;;;;;4.32;1.35;;;;;;;;;;8265615;28;20046;-86
2022/05/15 12:47:36;;;;;;;2.38;1.30;;;;;;;;;;8272173;28;20383;-86
2022/05/15 12:51:42;;;;;;;6.10;1.50;;;;;;;;;;8280130;28;20139;-88
2022/05/15 12:55:49;;;;;;;3.33;1.40;;;;;;;;;;8281559;28;20076;-88
2022/05/15 12:59:53;;;;;;;1.58;1.13;;;;;;;;;;8282737;28;20069;-86
2022/05/15 13:03:59;;;;;;;2.97;1.27;;;;;;;;;;8282598;28;20049;-84
2022/05/15 13:08:05;;;;;;;3.63;1.48;;;;;;;;;;8279200;28;20524;-84
2022/05/15 13:12:15;;;;;;;3.72;1.30;;;;;;;;;;8280627;28;20054;-85
2022/05/15 13:16:21;;;;;;;2.53;1.33;;;;;;;;;;8267521;28;20054;-84
2022/05/15 13:20:28;;;;;;;3.67;1.38;;;;;;;;;;8275318;28;20056;-85
2022/05/15 13:24:32;;;;;;;4.00;1.55;;;;;;;;;;8285058;28;20154;-85
2022/05/15 13:28:36;;;;;;;4.25;1.27;;;;;;;;;;8266618;28;20058;-85
2022/05/15 13:32:41;;;;;;;4.55;1.40;;;;;;;;;;8273689;28;20065;-84
2022/05/15 13:36:53;;;;;;;3.28;1.65;;;;;;;;;;8264643;28;20042;-84
2022/05/15 13:45:27;;;;;;;3.15;1.40;;;;;;;;;;8263015;28;20502;-84
2022/05/15 13:49:39;;;;;;;3.13;1.42;;;;;;;;;;8263558;28;20057;-84
2022/05/15 13:53:44;;;;;;;3.50;1.58;;;;;;;;;;8266896;28;20054;-85
2022/05/15 13:57:58;;;;;;;5.13;1.45;;;;;;;;;;8264512;28;20478;-83
2022/05/15 14:02:11;;;;;;;3.88;1.30;;;;;;;;;;8267644;28;20065;-83
2022/05/15 14:06:28;;;;;;;3.75;1.65;;;;;;;;;;8287466;28;20132;-85
2022/05/15 14:10:35;;;;;;;4.97;2.08;;;;;;;;;;8276657;28;20073;-83
2022/05/15 14:14:48;;;;;;;2.40;1.40;;;;;;;;;;8273999;28;20054;-85
2022/05/15 14:18:52;;;;;;;3.33;1.20;;;;;;;;;;8269934;28;20141;-86
2022/05/15 14:22:56;;;;;;;4.95;1.52;;;;;;;;;;8265717;28;20129;-87
2022/05/15 14:27:01;;;;;;;3.53;1.42;;;;;;;;;;8267996;28;20042;-86
2022/05/15 14:31:04;;;;;;;5.75;1.50;;;;;;;;;;8264706;28;20046;-84
2022/05/15 14:35:10;;;;;;;4.28;1.55;;;;;;;;;;8268939;28;20042;-87
2022/05/15 14:39:13;;;;;;;1.73;1.10;;;;;;;;;;8274000;28;20046;-87
2022/05/15 14:43:19;;;;;;;3.55;1.13;;;;;;;;;;8265851;28;20093;-83
2022/05/15 14:47:23;;;;;;;5.30;1.42;;;;;;;;;;8266860;28;20103;-82
2022/05/15 14:51:29;;;;;;;4.38;1.60;;;;;;;;;;8266381;28;20521;-84
2022/05/15 14:59:54;;;;;;;2.03;1.10;;;;;;;;;;8284290;28;20049;-83
2022/05/15 15:03:57;;;;;;;6.60;2.63;;;;;;;;;;8279914;28;20054;-83
2022/05/15 15:08:00;;;;;;;4.22;1.58;;;;;;;;;;8275136;28;20054;-83
2022/05/15 15:12:04;;;;;;;2.92;1.23;;;;;;;;;;8274976;28;20134;-85
2022/05/15 15:16:10;;;;;;;2.67;1.00;;;;;;;;;;8274787;28;20479;-83
2022/05/15 15:20:14;;;;;;;3.95;1.30;;;;;;;;;;8276250;28;20054;-85
2022/05/15 15:24:17;;;;;;;1.95;1.20;;;;;;;;;;8278144;28;20050;-84
2022/05/15 15:28:23;;;;;;;2.28;1.35;;;;;;;;;;8272020;28;20100;-86
2022/05/15 15:32:28;;;;;;;4.35;1.17;;;;;;;;;;8272068;28;20050;-86
2022/05/15 15:36:31;;;;;;;7.57;2.40;;;;;;;;;;8272046;28;20049;-83
2022/05/15 15:40:34;;;;;;;3.53;1.20;;;;;;;;;;8274773;28;20053;-84
2022/05/15 15:44:39;;;;;;;5.63;1.80;;;;;;;;;;8282808;28;20488;-83
2022/05/15 15:48:44;;;;;;;7.75;2.08;;;;;;;;;;8296987;28;20051;-83
2022/05/15 15:52:47;;;;;;;2.90;1.50;;;;;;;;;;8271279;28;20099;-84
2022/05/15 15:56:50;;;;;;;2.00;1.40;;;;;;;;;;8288302;28;20511;-83
2022/05/15 16:00:53;;;;;;;2.72;1.30;;;;;;;;;;8299950;28;20042;-82
2022/05/15 16:04:58;;;;;;;4.45;2.00;;;;;;;;;;8301338;28;20092;-83
2022/05/15 16:09:02;;;;;;;4.28;1.70;;;;;;;;;;8300233;28;20120;-83
2022/05/15 16:13:05;;;;;;;6.15;1.80;;;;;;;;;;8301181;28;20053;-82
2022/05/15 16:17:10;;;;;;;1.35;1.25;;;;;;;;;;8301562;28;20068;-83
2022/05/15 16:21:20;;;;;;;3.28;1.55;;;;;;;;;;8278751;28;20065;-81
2022/05/15 16:25:23;;;;;;;2.83;1.40;;;;;;;;;;8294243;28;20042;-83
2022/05/15 16:29:27;;;;;;;5.85;1.55;;;;;;;;;;8300874;28;20453;-83
2022/05/15 16:33:30;;;;;;;7.43;1.90;;;;;;;;;;8301096;28;20054;-83
2022/05/15 16:37:35;;;;;;;5.22;1.92;;;;;;;;;;8300752;28;20069;-83
2022/05/15 16:41:38;;;;;;;5.85;1.80;;;;;;;;;;8300429;28;20046;-83
2022/05/15 16:45:42;;;;;;;2.90;1.30;;;;;;;;;;8300517;28;20140;-83
2022/05/15 16:49:47;;;;;;;7.32;1.67;;;;;;;;;;8300433;28;20046;-83
2022/05/15 16:53:51;;;;;;;3.92;1.60;;;;;;;;;;8300375;28;20049;-85
2022/05/15 16:57:55;;;;;;;5.22;1.52;;;;;;;;;;8300238;28;20050;-83
2022/05/15 17:01:58;;;;;;;3.70;1.35;;;;;;;;;;8274199;28;20478;-83
2022/05/15 17:06:01;;;;;;;4.43;1.58;;;;;;;;;;8263795;28;20061;-87
2022/05/15 17:10:07;;;;;;;3.83;1.65;;;;;;;;;;8271575;28;20104;-83
2022/05/15 17:14:10;;;;;;;8.55;1.63;;;;;;;;;;8274828;28;20050;-84
2022/05/15 17:18:14;;;;;;;5.32;2.20;;;;;;;;;;8284031;28;20738;-85
2022/05/15 17:22:17;;;;;;;3.72;1.60;;;;;;;;;;8282149;28;20072;-84
2022/05/15 17:26:21;;;;;;;3.58;1.73;;;;;;;;;;8264165;28;20081;-84
2022/05/15 17:34:50;;;;;;;3.38;1.40;;;;;;;;;;8277736;28;20050;-85
2022/05/15 17:39:17;;;;;;;4.35;1.65;;;;;;;;;;8261646;28;20058;-85
2022/05/15 17:43:26;;;;;;;2.97;1.90;;;;;;;;;;8253582;28;20052;-86
2022/05/15 17:47:32;;;;;;;6.30;1.67;;;;;;;;;;8245777;28;20050;-86
2022/05/15 17:51:37;;;;;;;3.85;2.25;;;;;;;;;;8254071;28;20093;-84
2022/05/15 17:55:41;;;;;;;6.53;2.85;;;;;;;;;;8247730;28;20555;-83
2022/05/15 17:59:45;;;;;;;8.50;3.33;;;;;;;;;;8245806;28;20066;-85
2022/05/15 18:03:49;;;;;;;6.97;3.30;;;;;;;;;;8233575;28;20093;-85
2022/05/15 18:07:54;;;;;;;8.10;3.88;;;;;;;;;;8239694;28;20134;-84
2022/05/15 18:11:58;;;;;;;8.27;3.60;;;;;;;;;;8237127;28;20190;-85
2022/05/15 18:16:03;;;;;;;9.05;3.65;;;;;;;;;;8248956;28;20538;-84
2022/05/15 18:20:09;;;;;;;10.90;4.40;;;;;;;;;;8240013;28;20046;-84
2022/05/15 18:24:13;;;;;;;11.23;4.70;;;;;;;;;;8235264;28;20126;-86
2022/05/15 18:28:29;;;;;;;10.90;4.07;;;;;;;;;;8238272;28;20038;-85
2022/05/15 18:32:39;;;;;;;9.50;3.53;;;;;;;;;;8253280;28;20059;-84
2022/05/15 18:36:43;;;;;;;7.78;3.03;;;;;;;;;;8235846;28;20126;-84
2022/05/15 18:40:46;;;;;;;8.18;3.28;;;;;;;;;;8234362;28;20077;-83
2022/05/15 18:44:49;;;;;;;8.35;3.38;;;;;;;;;;8244791;28;20065;-83
2022/05/15 18:48:54;;;;;;;10.52;4.13;;;;;;;;;;8265969;28;20050;-83
2022/05/15 18:57:18;;;;;;;26.90;8.57;;;;;;;;;;8266234;28;20070;-83
2022/05/15 19:01:21;;;;;;;11.40;4.30;;;;;;;;;;8265638;28;20058;-83
2022/05/15 19:05:26;;;;;;;22.15;13.40;;;;;;;;;;8266002;28;20042;-83
2022/05/15 19:09:30;;;;;;;8.48;2.65;;;;;;;;;;8265540;28;20069;-83
2022/05/15 19:13:33;;;;;;;9.38;3.00;;;;;;;;;;8265952;28;20089;-85
2022/05/15 19:17:36;;;;;;;6.13;3.22;;;;;;;;;;8265900;28;20050;-83
2022/05/15 19:21:40;;;;;;;6.13;2.60;;;;;;;;;;8265662;28;20087;-84
2022/05/15 19:25:43;;;;;;;10.05;3.28;;;;;;;;;;8265520;28;20051;-83
2022/05/15 19:29:46;;;;;;;7.32;2.90;;;;;;;;;;8265652;28;20137;-83
2022/05/15 19:33:50;;;;;;;6.65;3.15;;;;;;;;;;8264656;28;20042;-84
2022/05/15 19:37:54;;;;;;;6.38;2.80;;;;;;;;;;8264392;28;20422;-84
2022/05/15 19:41:58;;;;;;;53.60;14.55;;;;;;;;;;8264569;28;20117;-84
2022/05/15 19:46:01;;;;;;;7.63;3.90;;;;;;;;;;8268801;28;20117;-83
2022/05/15 19:50:06;;;;;;;6.30;3.35;;;;;;;;;;8271003;28;20043;-84
2022/05/15 19:54:11;;;;;;;4.95;2.13;;;;;;;;;;8271395;28;20073;-84
2022/05/15 19:58:15;;;;;;;5.70;2.78;;;;;;;;;;8271578;28;20043;-85
2022/05/15 20:02:17;;;;;;;6.60;2.55;;;;;;;;;;8270839;28;20051;-84
2022/05/15 20:15:02;;;;;;;13.32;4.25;;;;;;;;;;8296605;28;20449;-83
2022/05/15 20:19:06;;;;;;;7.15;3.00;;;;;;;;;;8301262;28;20517;-83
2022/05/15 20:23:09;;;;;;;5.10;2.50;;;;;;;;;;8301800;28;20073;-84
2022/05/15 20:27:14;;;;;;;4.30;2.47;;;;;;;;;;8269940;28;20101;-84
2022/05/15 20:31:22;;;;;;;7.45;2.88;;;;;;;;;;8294988;28;20133;-85
2022/05/15 20:35:25;;;;;;;4.03;2.35;;;;;;;;;;8301107;28;20046;-84
2022/05/15 20:39:29;;;;;;;4.95;2.95;;;;;;;;;;8300764;28;20042;-84
2022/05/15 20:43:35;;;;;;;6.72;2.60;;;;;;;;;;8300508;28;20045;-84
2022/05/15 20:47:38;;;;;;;6.10;2.53;;;;;;;;;;8300412;28;20049;-84
2022/05/15 20:51:42;;;;;;;5.22;2.90;;;;;;;;;;8300386;28;20092;-84
2022/05/15 20:55:45;;;;;;;5.93;2.60;;;;;;;;;;8282939;28;20046;-84
2022/05/15 20:59:49;;;;;;;6.80;2.90;;;;;;;;;;8269216;28;20100;-84
2022/05/15 21:03:52;;;;;;;9.48;2.97;;;;;;;;;;8268992;28;20055;-84
2022/05/15 21:07:54;;;;;;;5.40;2.60;;;;;;;;;;8268695;28;20050;-84
2022/05/15 21:11:57;;;;;;;5.65;2.70;;;;;;;;;;8268609;28;20065;-84
2022/05/15 21:16:01;;;;;;;7.50;3.13;;;;;;;;;;8268567;28;20129;-86
2022/05/15 21:20:05;;;;;;;8.63;2.95;;;;;;;;;;8268849;28;20062;-84
2022/05/15 21:24:08;;;;;;;6.93;2.80;;;;;;;;;;8268352;28;20133;-84
2022/05/15 21:28:12;;;;;;;5.45;2.60;;;;;;;;;;8268556;28;20050;-84
2022/05/15 21:32:15;;;;;;;5.88;2.80;;;;;;;;;;8268501;28;20049;-85
2022/05/15 21:36:18;;;;;;;5.97;2.42;;;;;;;;;;8267978;28;20047;-84
2022/05/15 21:44:41;;;;;;;5.78;2.63;;;;;;;;;;8280332;28;20417;-86
2022/05/15 21:48:47;;;;;;;12.02;5.10;;;;;;;;;;8287914;28;20041;-84
2022/05/15 21:52:50;;;;;;;6.28;3.22;;;;;;;;;;8286131;28;20057;-86
2022/05/15 21:56:52;;;;;;;7.20;2.97;;;;;;;;;;8289423;28;20100;-85
2022/05/15 22:00:57;;;;;;;10.18;3.97;;;;;;;;;;8280578;28;20054;-86
2022/05/15 22:05:01;;;;;;;7.97;3.10;;;;;;;;;;8282888;28;20419;-86
2022/05/15 22:09:05;;;;;;;6.93;3.20;;;;;;;;;;8264747;28;20050;-84
2022/05/15 22:13:08;;;;;;;7.07;3.50;;;;;;;;;;8277988;28;20038;-84
2022/05/15 22:17:11;;;;;;;7.82;3.40;;;;;;;;;;8290906;28;20037;-87
2022/05/15 22:21:15;;;;;;;8.82;3.55;;;;;;;;;;8293499;28;20096;-84
2022/05/15 22:25:18;;;;;;;8.20;3.83;;;;;;;;;;8288756;28;20554;-86
2022/05/15 22:29:21;;;;;;;9.27;3.45;;;;;;;;;;8287252;28;20042;-84
2022/05/15 22:33:26;;;;;;;6.78;3.38;;;;;;;;;;8293246;28;20406;-84
2022/05/15 22:37:32;;;;;;;6.95;3.42;;;;;;;;;;8290617;28;20041;-84
2022/05/15 22:41:35;;;;;;;7.55;3.67;;;;;;;;;;8294522;28;20054;-86
2022/05/15 22:45:38;;;;;;;8.80;3.72;;;;;;;;;;8286416;28;20060;-84
2022/05/15 22:49:41;;;;;;;8.13;3.67;;;;;;;;;;8289897;28;20050;-87
2022/05/15 22:53:45;;;;;;;7.70;3.90;;;;;;;;;;8283551;28;20050;-87
2022/05/15 22:57:48;;;;;;;7.03;3.83;;;;;;;;;;8286662;28;20165;-86
2022/05/15 23:01:50;;;;;;;6.50;3.47;;;;;;;;;;8295875;28;20474;-86
2022/05/15 23:10:17;;;;;;;9.55;3.50;;;;;;;;;;8283095;28;20050;-86
2022/05/15 23:14:20;;;;;;;6.93;3.45;;;;;;;;;;8276114;28;20052;-83
2022/05/15 23:18:23;;;;;;;7.00;3.38;;;;;;;;;;8275858;28;20054;-83
2022/05/15 23:22:25;;;;;;;7.18;3.75;;;;;;;;;;8275341;28;20051;-84
2022/05/15 23:26:29;;;;;;;7.80;3.33;;;;;;;;;;8271723;28;20074;-85
2022/05/15 23:30:33;;;;;;;7.70;3.67;;;;;;;;;;8277026;28;20050;-84
2022/05/15 23:34:39;;;;;;;6.97;3.90;;;;;;;;;;8271311;28;20058;-84
2022/05/15 23:38:42;;;;;;;9.98;3.97;;;;;;;;;;8272023;28;20076;-84
2022/05/15 23:42:46;;;;;;;10.02;3.90;;;;;;;;;;8271262;28;20477;-84
2022/05/15 23:46:49;;;;;;;6.57;3.80;;;;;;;;;;8270941;28;20054;-84
2022/05/15 23:50:51;;;;;;;8.32;4.00;;;;;;;;;;8270995;28;20046;-84
2022/05/15 23:54:54;;;;;;;8.60;4.20;;;;;;;;;;8270190;28;20050;-84
2022/05/15 23:58:58;;;;;;;7.38;3.72;;;;;;;;;;8270117;28;20054;-84
